METAR、SPECI、TAF(飛行場実況・予報)


■ METAR、SPECI(飛行場実況)

METAR RJCT 121900Z NIL
METAR RJCT 122000Z NIL
METAR RJCT 122100Z NIL
METAR RJCT 122200Z VRB01KT 9999 FEW040 BKN200 17/14 Q1005 RMK 1CU040 7CI200 A2969
METAR RJCT 122300Z VRB01KT 9999 FEW040 SCT200 BKN230 19/15 Q1005 RMK 1CU040 4CI200 7CI230 A2969
METAR RJCT 130000Z VRB01KT 9999 FEW040 SCT200 BKN230 23/16 Q1005 RMK 1CU040 4CI200 7CI230 A2968
METAR RJCT 130100Z VRB02KT 9999 FEW200 BKN230 25/16 Q1004 RMK 2CI200 6CI230 A2967
METAR RJCT 130200Z VRB02KT 9999 FEW200 SCT230 28/15 Q1004 RMK 1CI200 3CI230 A2966
METAR RJCT 130300Z VRB02KT 9999 FEW040 SCT220 28/17 Q1004 RMK 1CU040 3CI220 A2964
METAR RJCT 130400Z VRB03KT 9999 FEW040 SCT150 30/15 Q1003 RMK 1CU040 3AC150 A2962
METAR RJCT 130500Z VRB01KT 9999 FEW040 SCT150 BKN200 29/17 Q1003 RMK 1CU040 3AC150 5CI200 A2962
METAR RJCT 130600Z 04009KT 9999 FEW030 SCT040 BKN150 28/17 Q1003 RMK 1CU030 3CU040 5AC150 A2963
SPECI RJCT 130621Z 07007G20KT 9999 FEW030 SCT040 BKN150 26/17 Q1004 RMK 1CU030 3CU040 5AC150 A2965
METAR RJCT 130700Z 08007G17KT 9999 TS FEW030CB SCT040 BKN150 25/16 Q1004 RMK 2CB030 3CU040 5AC150 A2966 FBL TS 20KM E STNR
METAR RJCT 130700Z 08007G17KT 9999 TS FEW030CB SCT040 BKN150 25/16 Q1004 RMK 2CB030 3CU040 5AC150 A2966 FBL TS 20KM E STNR
METAR RJCT 130800Z 03006KT 9999 FEW030CB SCT060 BKN120 23/16 Q1004 RMK 2CB030 3CU060 5AC120 A2967 CB 20KM NW MOV E
METAR RJCT 130900Z NIL
METAR RJCT 131000Z NIL
METAR RJCT 131100Z NIL
METAR RJCT 131200Z NIL
METAR RJCT 131300Z NIL
METAR RJCT 131400Z NIL
METAR RJCT 131500Z NIL
METAR RJCT 131600Z NIL
METAR RJCT 131700Z NIL
METAR RJCT 131800Z NIL
METAR RJCT 131900Z NIL
METAR RJCT 132000Z NIL
METAR RJCT 132100Z NIL
METAR RJCT 132200Z 13002KT 5000 BR SCT005 BKN007 17/15 Q1010 RMK 3ST005 7ST007 A2982
METAR RJCT 132300Z 15003KT 5000 BR SCT005 BKN007 17/15 Q1009 RMK 3ST005 7ST007 A2982
METAR RJCT 140000Z 15004KT 5000 -DZ BR SCT005 BKN007 17/15 Q1009 RMK 3ST005 7ST007 A2982
SPECI RJCT 140041Z 14004KT 6000 SCT005 BKN008 17/15 Q1010 RMK 3ST005 7ST008 A2984
METAR RJCT 140100Z 12004KT 6000 SCT005 BKN008 17/15 Q1010 RMK 3ST005 7ST008 A2984
SPECI RJCT 140109Z 14004KT 9999 FEW005 SCT008 BKN010 18/15 Q1010 RMK 2ST005 4ST008 7ST010 A2984
METAR RJCT 140200Z 13003KT 9999 FEW005 SCT008 BKN012 18/15 Q1010 RMK 2ST005 3ST008 7ST012 A2985
METAR RJCT 140300Z 13002KT 9999 FEW008 BKN015 BKN025 19/15 Q1011 RMK 2ST008 5CU015 7SC025 A2985
METAR RJCT 140400Z 17003KT 9999 FEW010 BKN018 BKN025 21/16 Q1010 RMK 2ST010 6CU018 7SC025 A2984
METAR RJCT 140500Z 16004KT 9999 FEW015 SCT020 BKN025 21/16 Q1009 RMK 1CU015 3CU020 7SC025 A2982
METAR RJCT 140600Z 09003KT 9999 FEW015 BKN020 BKN025 21/16 Q1009 RMK 1CU015 5CU020 7SC025 A2982
METAR RJCT 140700Z 15003KT 9999 FEW015 BKN020 BKN025 20/16 Q1010 RMK 1CU015 5CU020 7CU025 A2983
METAR RJCT 140800Z 13004KT 9999 FEW015 BKN020 BKN025 19/15 Q1010 RMK 1CU015 5CU020 7SC025 A2985
METAR RJCT 140900Z NIL
METAR RJCT 141000Z NIL
METAR RJCT 141100Z NIL
METAR RJCT 141200Z NIL
METAR RJCT 141300Z NIL
METAR RJCT 141400Z NIL
METAR RJCT 141500Z NIL
METAR RJCT 141600Z NIL
METAR RJCT 141700Z NIL
METAR RJCT 141800Z NIL
METAR RJCT 141900Z NIL
METAR RJCT 142000Z NIL
METAR RJCT 142100Z NIL
METAR RJCT 142200Z VRB02KT 9999 FEW005 BKN008 BKN012 14/12 Q1014 RMK 1ST005 5ST008 7ST012 A2995
METAR RJCT 142300Z 16003KT 9999 FEW005 BKN008 BKN012 15/13 Q1014 RMK 1ST005 5ST008 7ST012 A2995
SPECI RJCT 142313Z 13003KT 9999 FEW008 BKN010 BKN015 16/13 Q1014 RMK 1ST008 6ST010 7SC015 A2995
METAR RJCT 150000Z 17002KT 9999 SCT008 BKN011 BKN025 16/13 Q1013 RMK 3ST008 6ST011 7SC025 A2993
METAR RJCT 150100Z VRB02KT 9999 FEW010 BKN015 BKN025 17/13 Q1013 RMK 2ST010 6CU015 7SC025 A2992
METAR RJCT 150200Z VRB02KT 9999 FEW010 BKN018 BKN025 19/15 Q1013 RMK 2ST010 6CU018 7SC025 A2992
METAR RJCT 150300Z NIL
METAR RJCT 150400Z NIL
METAR RJCT 150500Z NIL
METAR RJCT 150600Z NIL
METAR RJCT 150700Z NIL
METAR RJCT 150800Z NIL
METAR RJCT 150900Z NIL
METAR RJCT 151000Z NIL
METAR RJCT 151100Z NIL
METAR RJCT 151200Z NIL
METAR RJCT 151300Z NIL
METAR RJCT 151400Z NIL

■ TAF(飛行場予報)


				

お知らせ

新着情報

  • 太陽光発電量推算
  • 気象予報士試験過去問・講座
  • Yahoo Weather shop
  • メルカリ Weather shop
  • BASE Weather shop

ご案内